sensor_id;sensor_type;location;lat;lon;timestamp;P1;durP1;ratioP1;P2;durP2;ratioP2
2404;SDS011;1213;43.206;27.922;2023-11-21T00:00:09;33.87;;;21.23;;
2404;SDS011;1213;43.206;27.922;2023-11-21T00:02:37;37.20;;;20.33;;
2404;SDS011;1213;43.206;27.922;2023-11-21T00:05:05;25.73;;;15.17;;
2404;SDS011;1213;43.206;27.922;2023-11-21T00:07:33;13.50;;;9.17;;
2404;SDS011;1213;43.206;27.922;2023-11-21T00:09:59;28.40;;;16.77;;
2404;SDS011;1213;43.206;27.922;2023-11-21T00:12:24;21.00;;;14.03;;
2404;SDS011;1213;43.206;27.922;2023-11-21T00:14:50;25.07;;;15.70;;
2404;SDS011;1213;43.206;27.922;2023-11-21T00:17:15;20.33;;;14.53;;
2404;SDS011;1213;43.206;27.922;2023-11-21T00:19:41;26.47;;;16.50;;
2404;SDS011;1213;43.206;27.922;2023-11-21T00:22:08;26.97;;;18.50;;
2404;SDS011;1213;43.206;27.922;2023-11-21T00:24:34;32.83;;;19.53;;
2404;SDS011;1213;43.206;27.922;2023-11-21T00:27:00;25.43;;;17.50;;
2404;SDS011;1213;43.206;27.922;2023-11-21T00:29:25;23.00;;;15.57;;
2404;SDS011;1213;43.206;27.922;2023-11-21T00:31:51;21.20;;;15.23;;
2404;SDS011;1213;43.206;27.922;2023-11-21T00:34:16;27.57;;;16.30;;
2404;SDS011;1213;43.206;27.922;2023-11-21T00:36:42;22.50;;;16.80;;
2404;SDS011;1213;43.206;27.922;2023-11-21T00:39:07;26.60;;;18.10;;
2404;SDS011;1213;43.206;27.922;2023-11-21T00:41:33;31.30;;;15.90;;
2404;SDS011;1213;43.206;27.922;2023-11-21T00:43:59;30.10;;;15.70;;
2404;SDS011;1213;43.206;27.922;2023-11-21T00:46:25;22.77;;;14.70;;
2404;SDS011;1213;43.206;27.922;2023-11-21T00:48:54;27.03;;;17.10;;
2404;SDS011;1213;43.206;27.922;2023-11-21T00:51:19;35.97;;;18.23;;
2404;SDS011;1213;43.206;27.922;2023-11-21T00:53:45;26.43;;;18.53;;
2404;SDS011;1213;43.206;27.922;2023-11-21T00:56:12;24.03;;;16.10;;
2404;SDS011;1213;43.206;27.922;2023-11-21T00:58:38;23.97;;;15.87;;
2404;SDS011;1213;43.206;27.922;2023-11-21T01:01:04;22.87;;;15.13;;
2404;SDS011;1213;43.206;27.922;2023-11-21T01:03:29;27.83;;;16.63;;
2404;SDS011;1213;43.206;27.922;2023-11-21T01:05:56;21.50;;;13.40;;
2404;SDS011;1213;43.206;27.922;2023-11-21T01:08:21;23.33;;;14.60;;
2404;SDS011;1213;43.206;27.922;2023-11-21T01:10:48;26.90;;;16.07;;
2404;SDS011;1213;43.206;27.922;2023-11-21T01:13:13;24.80;;;14.40;;
2404;SDS011;1213;43.206;27.922;2023-11-21T01:15:40;26.90;;;12.63;;
2404;SDS011;1213;43.206;27.922;2023-11-21T01:18:06;21.07;;;12.70;;
2404;SDS011;1213;43.206;27.922;2023-11-21T01:20:33;25.90;;;12.83;;
2404;SDS011;1213;43.206;27.922;2023-11-21T01:22:59;22.00;;;13.93;;
2404;SDS011;1213;43.206;27.922;2023-11-21T01:25:24;17.67;;;9.53;;
2404;SDS011;1213;43.206;27.922;2023-11-21T01:27:51;20.30;;;12.07;;
2404;SDS011;1213;43.206;27.922;2023-11-21T01:30:16;13.60;;;10.17;;
2404;SDS011;1213;43.206;27.922;2023-11-21T01:32:42;14.80;;;10.67;;
2404;SDS011;1213;43.206;27.922;2023-11-21T01:35:08;20.60;;;12.60;;
2404;SDS011;1213;43.206;27.922;2023-11-21T01:37:35;17.20;;;11.37;;
2404;SDS011;1213;43.206;27.922;2023-11-21T01:40:01;14.67;;;11.00;;
2404;SDS011;1213;43.206;27.922;2023-11-21T01:42:27;15.63;;;9.53;;
2404;SDS011;1213;43.206;27.922;2023-11-21T01:44:54;18.30;;;12.73;;
2404;SDS011;1213;43.206;27.922;2023-11-21T01:47:20;22.70;;;12.77;;
2404;SDS011;1213;43.206;27.922;2023-11-21T01:49:47;17.60;;;12.40;;
2404;SDS011;1213;43.206;27.922;2023-11-21T01:52:13;14.13;;;10.67;;
2404;SDS011;1213;43.206;27.922;2023-11-21T01:54:39;17.00;;;11.47;;
2404;SDS011;1213;43.206;27.922;2023-11-21T01:57:06;16.60;;;10.43;;
2404;SDS011;1213;43.206;27.922;2023-11-21T01:59:35;10.20;;;7.07;;
2404;SDS011;1213;43.206;27.922;2023-11-21T02:02:03;10.87;;;8.83;;
2404;SDS011;1213;43.206;27.922;2023-11-21T02:04:32;24.40;;;10.87;;
2404;SDS011;1213;43.206;27.922;2023-11-21T02:06:58;10.90;;;8.83;;
2404;SDS011;1213;43.206;27.922;2023-11-21T02:09:27;14.43;;;10.77;;
2404;SDS011;1213;43.206;27.922;2023-11-21T02:11:56;16.03;;;10.60;;
2404;SDS011;1213;43.206;27.922;2023-11-21T02:14:23;22.13;;;11.47;;
2404;SDS011;1213;43.206;27.922;2023-11-21T02:16:51;16.37;;;10.63;;
2404;SDS011;1213;43.206;27.922;2023-11-21T02:19:18;18.53;;;10.50;;
2404;SDS011;1213;43.206;27.922;2023-11-21T02:21:48;13.53;;;9.97;;
2404;SDS011;1213;43.206;27.922;2023-11-21T02:24:21;18.90;;;11.10;;
2404;SDS011;1213;43.206;27.922;2023-11-21T02:26:50;19.70;;;11.87;;
2404;SDS011;1213;43.206;27.922;2023-11-21T02:29:19;19.17;;;12.90;;
2404;SDS011;1213;43.206;27.922;2023-11-21T02:31:47;12.07;;;8.10;;
2404;SDS011;1213;43.206;27.922;2023-11-21T02:34:15;21.83;;;11.10;;
2404;SDS011;1213;43.206;27.922;2023-11-21T02:36:42;19.67;;;12.60;;
2404;SDS011;1213;43.206;27.922;2023-11-21T02:39:10;20.20;;;12.70;;
2404;SDS011;1213;43.206;27.922;2023-11-21T02:41:37;18.67;;;11.50;;
2404;SDS011;1213;43.206;27.922;2023-11-21T02:44:03;18.50;;;11.00;;
2404;SDS011;1213;43.206;27.922;2023-11-21T02:46:31;16.03;;;10.93;;
2404;SDS011;1213;43.206;27.922;2023-11-21T02:48:58;15.43;;;10.57;;
2404;SDS011;1213;43.206;27.922;2023-11-21T02:51:25;15.40;;;9.57;;
2404;SDS011;1213;43.206;27.922;2023-11-21T02:53:50;14.57;;;9.03;;
2404;SDS011;1213;43.206;27.922;2023-11-21T02:56:19;11.77;;;9.57;;
2404;SDS011;1213;43.206;27.922;2023-11-21T02:58:45;11.67;;;8.53;;
2404;SDS011;1213;43.206;27.922;2023-11-21T03:01:10;12.07;;;8.73;;
2404;SDS011;1213;43.206;27.922;2023-11-21T03:03:36;10.30;;;7.40;;
2404;SDS011;1213;43.206;27.922;2023-11-21T03:06:05;14.33;;;7.60;;
2404;SDS011;1213;43.206;27.922;2023-11-21T03:08:33;9.23;;;5.80;;
2404;SDS011;1213;43.206;27.922;2023-11-21T03:10:59;8.57;;;5.60;;
2404;SDS011;1213;43.206;27.922;2023-11-21T03:13:25;8.53;;;6.43;;
2404;SDS011;1213;43.206;27.922;2023-11-21T03:15:50;8.37;;;7.07;;
2404;SDS011;1213;43.206;27.922;2023-11-21T03:18:16;11.43;;;7.30;;
2404;SDS011;1213;43.206;27.922;2023-11-21T03:20:42;12.10;;;6.27;;
2404;SDS011;1213;43.206;27.922;2023-11-21T03:23:11;7.90;;;6.93;;
2404;SDS011;1213;43.206;27.922;2023-11-21T03:25:37;11.50;;;8.07;;
2404;SDS011;1213;43.206;27.922;2023-11-21T03:28:02;11.23;;;6.40;;
2404;SDS011;1213;43.206;27.922;2023-11-21T03:30:28;10.37;;;6.00;;
2404;SDS011;1213;43.206;27.922;2023-11-21T03:32:53;10.23;;;5.90;;
2404;SDS011;1213;43.206;27.922;2023-11-21T03:35:19;8.53;;;5.83;;
2404;SDS011;1213;43.206;27.922;2023-11-21T03:37:46;9.83;;;6.60;;
2404;SDS011;1213;43.206;27.922;2023-11-21T03:40:11;7.20;;;4.80;;
2404;SDS011;1213;43.206;27.922;2023-11-21T03:42:37;7.67;;;5.20;;
2404;SDS011;1213;43.206;27.922;2023-11-21T03:45:04;7.60;;;6.10;;
2404;SDS011;1213;43.206;27.922;2023-11-21T03:47:30;6.10;;;4.30;;
2404;SDS011;1213;43.206;27.922;2023-11-21T03:49:55;9.30;;;5.60;;
2404;SDS011;1213;43.206;27.922;2023-11-21T03:52:20;10.60;;;5.40;;
2404;SDS011;1213;43.206;27.922;2023-11-21T03:54:46;11.97;;;5.60;;
2404;SDS011;1213;43.206;27.922;2023-11-21T03:57:11;10.50;;;7.30;;
2404;SDS011;1213;43.206;27.922;2023-11-21T03:59:39;8.57;;;3.60;;
2404;SDS011;1213;43.206;27.922;2023-11-21T04:02:06;6.23;;;4.20;;
2404;SDS011;1213;43.206;27.922;2023-11-21T04:04:32;11.07;;;7.80;;
2404;SDS011;1213;43.206;27.922;2023-11-21T04:06:58;15.00;;;7.23;;
2404;SDS011;1213;43.206;27.922;2023-11-21T04:09:24;10.90;;;8.13;;
2404;SDS011;1213;43.206;27.922;2023-11-21T04:11:50;7.03;;;5.20;;
2404;SDS011;1213;43.206;27.922;2023-11-21T04:14:16;6.97;;;5.13;;
2404;SDS011;1213;43.206;27.922;2023-11-21T04:16:42;18.70;;;9.63;;
2404;SDS011;1213;43.206;27.922;2023-11-21T04:19:08;13.70;;;10.07;;
2404;SDS011;1213;43.206;27.922;2023-11-21T04:21:35;15.67;;;11.60;;
2404;SDS011;1213;43.206;27.922;2023-11-21T04:24:01;18.80;;;11.60;;
2404;SDS011;1213;43.206;27.922;2023-11-21T04:26:26;20.97;;;13.13;;
2404;SDS011;1213;43.206;27.922;2023-11-21T04:28:52;17.57;;;11.70;;
2404;SDS011;1213;43.206;27.922;2023-11-21T04:31:17;16.47;;;11.30;;
2404;SDS011;1213;43.206;27.922;2023-11-21T04:33:42;13.77;;;10.00;;
2404;SDS011;1213;43.206;27.922;2023-11-21T04:36:11;19.30;;;11.80;;
2404;SDS011;1213;43.206;27.922;2023-11-21T04:38:36;21.20;;;13.93;;
2404;SDS011;1213;43.206;27.922;2023-11-21T04:41:02;22.60;;;14.50;;
2404;SDS011;1213;43.206;27.922;2023-11-21T04:43:27;22.97;;;14.53;;
2404;SDS011;1213;43.206;27.922;2023-11-21T04:45:53;18.63;;;13.90;;
2404;SDS011;1213;43.206;27.922;2023-11-21T04:48:19;21.90;;;12.90;;
2404;SDS011;1213;43.206;27.922;2023-11-21T04:50:45;18.63;;;13.73;;
2404;SDS011;1213;43.206;27.922;2023-11-21T04:53:10;18.30;;;12.93;;
2404;SDS011;1213;43.206;27.922;2023-11-21T04:55:38;17.10;;;10.63;;
2404;SDS011;1213;43.206;27.922;2023-11-21T04:58:04;18.70;;;12.53;;
2404;SDS011;1213;43.206;27.922;2023-11-21T05:00:30;15.00;;;9.97;;
2404;SDS011;1213;43.206;27.922;2023-11-21T05:02:55;24.73;;;13.97;;
2404;SDS011;1213;43.206;27.922;2023-11-21T05:05:20;20.43;;;13.60;;
2404;SDS011;1213;43.206;27.922;2023-11-21T05:07:46;15.50;;;10.23;;
2404;SDS011;1213;43.206;27.922;2023-11-21T05:10:11;23.43;;;14.00;;
2404;SDS011;1213;43.206;27.922;2023-11-21T05:12:39;18.47;;;13.33;;
2404;SDS011;1213;43.206;27.922;2023-11-21T05:15:06;23.90;;;8.63;;
2404;SDS011;1213;43.206;27.922;2023-11-21T05:17:35;17.10;;;11.33;;
2404;SDS011;1213;43.206;27.922;2023-11-21T05:20:00;15.57;;;8.17;;
2404;SDS011;1213;43.206;27.922;2023-11-21T05:22:29;8.17;;;5.17;;
2404;SDS011;1213;43.206;27.922;2023-11-21T05:24:55;6.90;;;6.27;;
2404;SDS011;1213;43.206;27.922;2023-11-21T05:27:20;14.00;;;9.40;;
2404;SDS011;1213;43.206;27.922;2023-11-21T05:29:46;17.03;;;10.57;;
2404;SDS011;1213;43.206;27.922;2023-11-21T05:32:11;21.10;;;11.60;;
2404;SDS011;1213;43.206;27.922;2023-11-21T05:34:36;27.07;;;13.37;;
2404;SDS011;1213;43.206;27.922;2023-11-21T05:37:02;23.67;;;13.40;;
2404;SDS011;1213;43.206;27.922;2023-11-21T05:39:27;18.20;;;10.53;;
2404;SDS011;1213;43.206;27.922;2023-11-21T05:41:54;27.07;;;16.37;;
2404;SDS011;1213;43.206;27.922;2023-11-21T05:44:20;31.40;;;17.23;;
2404;SDS011;1213;43.206;27.922;2023-11-21T05:46:47;37.10;;;24.03;;
2404;SDS011;1213;43.206;27.922;2023-11-21T05:49:12;67.67;;;44.30;;
2404;SDS011;1213;43.206;27.922;2023-11-21T05:51:38;51.50;;;33.37;;
2404;SDS011;1213;43.206;27.922;2023-11-21T05:54:03;38.10;;;23.10;;
2404;SDS011;1213;43.206;27.922;2023-11-21T05:56:29;35.77;;;19.63;;
2404;SDS011;1213;43.206;27.922;2023-11-21T05:58:54;22.13;;;15.07;;
2404;SDS011;1213;43.206;27.922;2023-11-21T06:01:20;27.07;;;16.37;;
2404;SDS011;1213;43.206;27.922;2023-11-21T06:03:46;29.37;;;15.00;;
2404;SDS011;1213;43.206;27.922;2023-11-21T06:06:11;23.87;;;16.90;;
2404;SDS011;1213;43.206;27.922;2023-11-21T06:08:37;20.63;;;13.67;;
2404;SDS011;1213;43.206;27.922;2023-11-21T06:11:02;28.13;;;14.97;;
2404;SDS011;1213;43.206;27.922;2023-11-21T06:13:28;20.50;;;10.37;;
2404;SDS011;1213;43.206;27.922;2023-11-21T06:15:53;28.43;;;13.13;;
2404;SDS011;1213;43.206;27.922;2023-11-21T06:18:20;24.30;;;14.13;;
2404;SDS011;1213;43.206;27.922;2023-11-21T06:20:46;24.53;;;14.70;;
2404;SDS011;1213;43.206;27.922;2023-11-21T06:23:12;19.03;;;13.10;;
2404;SDS011;1213;43.206;27.922;2023-11-21T06:25:38;21.40;;;14.60;;
2404;SDS011;1213;43.206;27.922;2023-11-21T06:28:04;19.77;;;14.00;;
2404;SDS011;1213;43.206;27.922;2023-11-21T06:30:30;29.87;;;13.77;;
2404;SDS011;1213;43.206;27.922;2023-11-21T06:32:55;22.63;;;13.23;;
2404;SDS011;1213;43.206;27.922;2023-11-21T06:35:21;20.80;;;12.50;;
2404;SDS011;1213;43.206;27.922;2023-11-21T06:37:46;22.60;;;13.97;;
2404;SDS011;1213;43.206;27.922;2023-11-21T06:40:16;26.63;;;15.60;;
2404;SDS011;1213;43.206;27.922;2023-11-21T06:42:43;20.63;;;11.00;;
2404;SDS011;1213;43.206;27.922;2023-11-21T06:45:09;26.07;;;14.33;;
2404;SDS011;1213;43.206;27.922;2023-11-21T06:47:36;18.80;;;12.50;;
2404;SDS011;1213;43.206;27.922;2023-11-21T06:50:03;19.20;;;12.90;;
2404;SDS011;1213;43.206;27.922;2023-11-21T06:52:29;22.60;;;14.20;;
2404;SDS011;1213;43.206;27.922;2023-11-21T06:54:54;19.77;;;8.27;;
2404;SDS011;1213;43.206;27.922;2023-11-21T06:57:20;23.87;;;10.60;;
2404;SDS011;1213;43.206;27.922;2023-11-21T06:59:45;25.03;;;12.60;;
2404;SDS011;1213;43.206;27.922;2023-11-21T07:02:12;27.33;;;15.00;;
2404;SDS011;1213;43.206;27.922;2023-11-21T07:04:37;24.40;;;16.00;;
2404;SDS011;1213;43.206;27.922;2023-11-21T07:07:04;17.40;;;14.17;;
2404;SDS011;1213;43.206;27.922;2023-11-21T07:09:31;45.83;;;17.50;;
2404;SDS011;1213;43.206;27.922;2023-11-21T07:11:57;14.43;;;7.80;;
2404;SDS011;1213;43.206;27.922;2023-11-21T07:14:23;30.10;;;16.23;;
2404;SDS011;1213;43.206;27.922;2023-11-21T07:16:48;26.53;;;15.77;;
2404;SDS011;1213;43.206;27.922;2023-11-21T07:19:14;30.87;;;18.50;;
2404;SDS011;1213;43.206;27.922;2023-11-21T07:21:40;21.77;;;13.50;;
2404;SDS011;1213;43.206;27.922;2023-11-21T07:24:06;32.10;;;16.60;;
2404;SDS011;1213;43.206;27.922;2023-11-21T07:26:33;37.10;;;17.90;;
2404;SDS011;1213;43.206;27.922;2023-11-21T07:28:59;29.33;;;17.50;;
2404;SDS011;1213;43.206;27.922;2023-11-21T07:31:25;26.33;;;14.33;;
2404;SDS011;1213;43.206;27.922;2023-11-21T07:33:51;30.50;;;15.20;;
2404;SDS011;1213;43.206;27.922;2023-11-21T07:36:17;30.23;;;17.97;;
2404;SDS011;1213;43.206;27.922;2023-11-21T07:38:45;31.13;;;16.37;;
2404;SDS011;1213;43.206;27.922;2023-11-21T07:41:10;22.50;;;14.77;;
2404;SDS011;1213;43.206;27.922;2023-11-21T07:43:36;26.87;;;17.03;;
2404;SDS011;1213;43.206;27.922;2023-11-21T07:46:02;24.40;;;14.93;;
2404;SDS011;1213;43.206;27.922;2023-11-21T07:48:29;27.20;;;17.07;;
2404;SDS011;1213;43.206;27.922;2023-11-21T07:50:55;24.87;;;15.50;;
2404;SDS011;1213;43.206;27.922;2023-11-21T07:53:20;16.43;;;10.57;;
2404;SDS011;1213;43.206;27.922;2023-11-21T07:55:47;14.07;;;8.13;;
2404;SDS011;1213;43.206;27.922;2023-11-21T07:58:12;25.77;;;12.77;;
2404;SDS011;1213;43.206;27.922;2023-11-21T08:00:38;20.60;;;12.97;;
2404;SDS011;1213;43.206;27.922;2023-11-21T08:03:04;16.00;;;9.93;;
2404;SDS011;1213;43.206;27.922;2023-11-21T08:05:30;20.00;;;11.87;;
2404;SDS011;1213;43.206;27.922;2023-11-21T08:07:56;14.53;;;9.17;;
2404;SDS011;1213;43.206;27.922;2023-11-21T08:10:22;11.27;;;7.93;;
2404;SDS011;1213;43.206;27.922;2023-11-21T08:12:47;26.00;;;10.40;;
2404;SDS011;1213;43.206;27.922;2023-11-21T08:15:13;23.63;;;17.00;;
2404;SDS011;1213;43.206;27.922;2023-11-21T08:17:39;8.87;;;6.20;;
2404;SDS011;1213;43.206;27.922;2023-11-21T08:20:05;17.17;;;11.43;;
2404;SDS011;1213;43.206;27.922;2023-11-21T08:22:31;16.73;;;11.07;;
2404;SDS011;1213;43.206;27.922;2023-11-21T08:24:57;22.73;;;10.33;;
2404;SDS011;1213;43.206;27.922;2023-11-21T08:27:23;20.13;;;11.00;;
2404;SDS011;1213;43.206;27.922;2023-11-21T08:29:48;17.73;;;11.77;;
2404;SDS011;1213;43.206;27.922;2023-11-21T08:32:14;22.90;;;12.70;;
2404;SDS011;1213;43.206;27.922;2023-11-21T08:34:40;24.83;;;13.57;;
2404;SDS011;1213;43.206;27.922;2023-11-21T08:37:08;15.20;;;12.10;;
2404;SDS011;1213;43.206;27.922;2023-11-21T08:39:33;31.53;;;14.73;;
2404;SDS011;1213;43.206;27.922;2023-11-21T08:41:59;18.50;;;11.97;;
2404;SDS011;1213;43.206;27.922;2023-11-21T08:44:24;15.53;;;10.90;;
2404;SDS011;1213;43.206;27.922;2023-11-21T08:46:50;15.83;;;8.20;;
2404;SDS011;1213;43.206;27.922;2023-11-21T08:49:15;16.03;;;9.67;;
2404;SDS011;1213;43.206;27.922;2023-11-21T08:51:42;18.30;;;10.23;;
2404;SDS011;1213;43.206;27.922;2023-11-21T08:54:09;44.30;;;8.80;;
2404;SDS011;1213;43.206;27.922;2023-11-21T08:56:37;20.10;;;11.23;;
2404;SDS011;1213;43.206;27.922;2023-11-21T08:59:02;21.73;;;8.00;;
2404;SDS011;1213;43.206;27.922;2023-11-21T09:01:28;27.87;;;12.73;;
2404;SDS011;1213;43.206;27.922;2023-11-21T09:03:56;17.63;;;11.00;;
2404;SDS011;1213;43.206;27.922;2023-11-21T09:06:24;14.20;;;8.40;;
2404;SDS011;1213;43.206;27.922;2023-11-21T09:08:50;22.57;;;9.93;;
2404;SDS011;1213;43.206;27.922;2023-11-21T09:11:15;16.47;;;8.73;;
2404;SDS011;1213;43.206;27.922;2023-11-21T09:13:42;15.90;;;8.20;;
2404;SDS011;1213;43.206;27.922;2023-11-21T09:16:07;13.17;;;7.33;;
2404;SDS011;1213;43.206;27.922;2023-11-21T09:18:33;9.53;;;6.80;;
2404;SDS011;1213;43.206;27.922;2023-11-21T09:20:59;10.43;;;7.53;;
2404;SDS011;1213;43.206;27.922;2023-11-21T09:23:24;21.57;;;9.17;;
2404;SDS011;1213;43.206;27.922;2023-11-21T09:25:50;14.80;;;9.17;;
2404;SDS011;1213;43.206;27.922;2023-11-21T09:28:17;7.57;;;5.37;;
2404;SDS011;1213;43.206;27.922;2023-11-21T09:30:43;8.03;;;3.30;;
2404;SDS011;1213;43.206;27.922;2023-11-21T09:33:09;4.60;;;2.60;;
2404;SDS011;1213;43.206;27.922;2023-11-21T09:35:37;4.43;;;3.80;;
2404;SDS011;1213;43.206;27.922;2023-11-21T09:38:03;15.23;;;5.30;;
2404;SDS011;1213;43.206;27.922;2023-11-21T09:40:35;7.93;;;4.23;;
2404;SDS011;1213;43.206;27.922;2023-11-21T09:43:00;6.40;;;3.60;;
2404;SDS011;1213;43.206;27.922;2023-11-21T09:45:34;8.03;;;3.80;;
2404;SDS011;1213;43.206;27.922;2023-11-21T09:48:01;11.87;;;3.67;;
2404;SDS011;1213;43.206;27.922;2023-11-21T09:50:27;7.10;;;3.57;;
2404;SDS011;1213;43.206;27.922;2023-11-21T09:55:35;9.10;;;4.00;;
2404;SDS011;1213;43.206;27.922;2023-11-21T09:58:03;13.07;;;3.20;;
2404;SDS011;1213;43.206;27.922;2023-11-21T10:00:32;7.23;;;3.37;;
2404;SDS011;1213;43.206;27.922;2023-11-21T10:02:59;7.90;;;3.77;;
2404;SDS011;1213;43.206;27.922;2023-11-21T10:05:25;3.20;;;2.90;;
2404;SDS011;1213;43.206;27.922;2023-11-21T10:07:50;3.73;;;3.43;;
2404;SDS011;1213;43.206;27.922;2023-11-21T10:10:20;3.30;;;3.00;;
2404;SDS011;1213;43.206;27.922;2023-11-21T10:12:48;6.00;;;3.97;;
2404;SDS011;1213;43.206;27.922;2023-11-21T10:15:18;15.90;;;4.67;;
2404;SDS011;1213;43.206;27.922;2023-11-21T10:17:47;6.17;;;4.07;;
2404;SDS011;1213;43.206;27.922;2023-11-21T10:20:14;8.17;;;4.03;;
2404;SDS011;1213;43.206;27.922;2023-11-21T10:22:40;5.70;;;4.60;;
2404;SDS011;1213;43.206;27.922;2023-11-21T10:25:08;11.53;;;4.43;;
2404;SDS011;1213;43.206;27.922;2023-11-21T10:27:35;15.63;;;4.10;;
2404;SDS011;1213;43.206;27.922;2023-11-21T10:30:02;6.37;;;4.77;;
2404;SDS011;1213;43.206;27.922;2023-11-21T10:32:29;8.93;;;5.90;;
2404;SDS011;1213;43.206;27.922;2023-11-21T10:35:01;8.93;;;3.87;;
2404;SDS011;1213;43.206;27.922;2023-11-21T10:37:32;7.43;;;4.40;;
2404;SDS011;1213;43.206;27.922;2023-11-21T10:39:58;10.60;;;4.23;;
2404;SDS011;1213;43.206;27.922;2023-11-21T10:42:24;10.17;;;3.97;;
2404;SDS011;1213;43.206;27.922;2023-11-21T10:44:49;5.63;;;3.37;;
2404;SDS011;1213;43.206;27.922;2023-11-21T10:47:15;7.70;;;4.83;;
2404;SDS011;1213;43.206;27.922;2023-11-21T10:49:44;12.37;;;4.73;;
2404;SDS011;1213;43.206;27.922;2023-11-21T10:52:12;9.60;;;5.60;;
2404;SDS011;1213;43.206;27.922;2023-11-21T10:54:42;8.23;;;5.07;;
2404;SDS011;1213;43.206;27.922;2023-11-21T10:57:08;5.07;;;4.60;;
2404;SDS011;1213;43.206;27.922;2023-11-21T10:59:36;9.80;;;5.50;;
2404;SDS011;1213;43.206;27.922;2023-11-21T11:02:05;7.00;;;4.83;;
2404;SDS011;1213;43.206;27.922;2023-11-21T11:04:50;9.00;;;6.00;;
2404;SDS011;1213;43.206;27.922;2023-11-21T11:07:18;9.57;;;4.73;;
2404;SDS011;1213;43.206;27.922;2023-11-21T11:09:45;7.97;;;4.93;;
2404;SDS011;1213;43.206;27.922;2023-11-21T11:12:12;12.23;;;5.10;;
2404;SDS011;1213;43.206;27.922;2023-11-21T11:14:40;8.83;;;4.47;;
2404;SDS011;1213;43.206;27.922;2023-11-21T11:17:06;8.90;;;5.20;;
2404;SDS011;1213;43.206;27.922;2023-11-21T11:19:34;6.10;;;4.80;;
2404;SDS011;1213;43.206;27.922;2023-11-21T11:22:19;9.63;;;5.53;;
2404;SDS011;1213;43.206;27.922;2023-11-21T11:24:58;8.57;;;5.83;;
2404;SDS011;1213;43.206;27.922;2023-11-21T11:27:54;8.73;;;5.10;;
2404;SDS011;1213;43.206;27.922;2023-11-21T11:33:37;7.40;;;4.17;;
2404;SDS011;1213;43.206;27.922;2023-11-21T11:36:13;9.13;;;4.90;;
2404;SDS011;1213;43.206;27.922;2023-11-21T11:38:47;8.57;;;4.87;;
2404;SDS011;1213;43.206;27.922;2023-11-21T11:41:24;7.33;;;6.03;;
2404;SDS011;1213;43.206;27.922;2023-11-21T11:43:51;5.60;;;4.93;;
2404;SDS011;1213;43.206;27.922;2023-11-21T11:46:18;7.93;;;4.70;;
2404;SDS011;1213;43.206;27.922;2023-11-21T11:48:46;13.23;;;4.80;;
2404;SDS011;1213;43.206;27.922;2023-11-21T11:51:13;6.47;;;4.20;;
2404;SDS011;1213;43.206;27.922;2023-11-21T11:53:42;12.23;;;5.20;;
2404;SDS011;1213;43.206;27.922;2023-11-21T11:56:24;11.10;;;7.60;;
2404;SDS011;1213;43.206;27.922;2023-11-21T11:58:56;9.30;;;6.10;;
2404;SDS011;1213;43.206;27.922;2023-11-21T12:01:24;10.63;;;5.53;;
2404;SDS011;1213;43.206;27.922;2023-11-21T12:06:51;8.87;;;6.10;;
2404;SDS011;1213;43.206;27.922;2023-11-21T12:09:18;15.80;;;6.40;;
2404;SDS011;1213;43.206;27.922;2023-11-21T12:11:46;8.47;;;5.30;;
2404;SDS011;1213;43.206;27.922;2023-11-21T12:14:14;10.20;;;6.00;;
2404;SDS011;1213;43.206;27.922;2023-11-21T12:16:40;7.30;;;6.00;;
2404;SDS011;1213;43.206;27.922;2023-11-21T12:19:08;10.33;;;5.70;;
2404;SDS011;1213;43.206;27.922;2023-11-21T12:21:33;6.57;;;5.57;;
2404;SDS011;1213;43.206;27.922;2023-11-21T12:24:01;5.10;;;4.30;;
2404;SDS011;1213;43.206;27.922;2023-11-21T12:26:26;8.97;;;4.93;;
2404;SDS011;1213;43.206;27.922;2023-11-21T12:28:52;6.60;;;5.10;;
2404;SDS011;1213;43.206;27.922;2023-11-21T12:31:21;5.40;;;4.90;;
2404;SDS011;1213;43.206;27.922;2023-11-21T12:33:47;16.43;;;4.87;;
2404;SDS011;1213;43.206;27.922;2023-11-21T12:36:13;7.47;;;4.80;;
2404;SDS011;1213;43.206;27.922;2023-11-21T12:38:39;10.60;;;4.60;;
2404;SDS011;1213;43.206;27.922;2023-11-21T12:41:05;6.40;;;4.70;;
2404;SDS011;1213;43.206;27.922;2023-11-21T12:43:31;5.23;;;4.20;;
2404;SDS011;1213;43.206;27.922;2023-11-21T12:46:07;4.07;;;3.77;;
2404;SDS011;1213;43.206;27.922;2023-11-21T12:48:36;7.10;;;5.20;;
2404;SDS011;1213;43.206;27.922;2023-11-21T12:51:04;5.67;;;4.00;;
2404;SDS011;1213;43.206;27.922;2023-11-21T12:53:31;7.63;;;5.50;;
2404;SDS011;1213;43.206;27.922;2023-11-21T12:56:02;6.20;;;4.50;;
2404;SDS011;1213;43.206;27.922;2023-11-21T12:58:31;5.67;;;3.60;;
2404;SDS011;1213;43.206;27.922;2023-11-21T13:00:58;7.00;;;4.70;;
2404;SDS011;1213;43.206;27.922;2023-11-21T13:03:25;7.20;;;6.17;;
2404;SDS011;1213;43.206;27.922;2023-11-21T13:05:51;5.33;;;4.53;;
2404;SDS011;1213;43.206;27.922;2023-11-21T13:08:22;8.60;;;7.80;;
2404;SDS011;1213;43.206;27.922;2023-11-21T13:10:50;4.50;;;3.77;;
2404;SDS011;1213;43.206;27.922;2023-11-21T13:13:21;4.17;;;3.40;;
2404;SDS011;1213;43.206;27.922;2023-11-21T13:15:48;11.73;;;5.10;;
2404;SDS011;1213;43.206;27.922;2023-11-21T13:18:15;4.77;;;3.10;;
2404;SDS011;1213;43.206;27.922;2023-11-21T13:20:41;7.40;;;3.53;;
2404;SDS011;1213;43.206;27.922;2023-11-21T13:23:11;3.40;;;2.87;;
2404;SDS011;1213;43.206;27.922;2023-11-21T13:25:37;4.13;;;3.60;;
2404;SDS011;1213;43.206;27.922;2023-11-21T13:28:06;4.20;;;3.90;;
2404;SDS011;1213;43.206;27.922;2023-11-21T13:30:32;5.73;;;3.57;;
2404;SDS011;1213;43.206;27.922;2023-11-21T13:33:01;5.40;;;3.53;;
2404;SDS011;1213;43.206;27.922;2023-11-21T13:35:27;4.60;;;3.80;;
2404;SDS011;1213;43.206;27.922;2023-11-21T13:38:02;6.03;;;3.70;;
2404;SDS011;1213;43.206;27.922;2023-11-21T13:40:30;8.80;;;4.23;;
2404;SDS011;1213;43.206;27.922;2023-11-21T13:42:56;5.90;;;4.50;;
2404;SDS011;1213;43.206;27.922;2023-11-21T13:45:25;7.70;;;3.43;;
2404;SDS011;1213;43.206;27.922;2023-11-21T13:47:53;3.10;;;2.80;;
2404;SDS011;1213;43.206;27.922;2023-11-21T13:50:24;6.00;;;3.27;;
2404;SDS011;1213;43.206;27.922;2023-11-21T13:52:55;5.00;;;3.20;;
2404;SDS011;1213;43.206;27.922;2023-11-21T13:55:21;4.57;;;3.03;;
2404;SDS011;1213;43.206;27.922;2023-11-21T13:57:50;12.00;;;3.73;;
2404;SDS011;1213;43.206;27.922;2023-11-21T14:00:17;4.50;;;3.10;;
2404;SDS011;1213;43.206;27.922;2023-11-21T14:03:02;3.27;;;2.97;;
2404;SDS011;1213;43.206;27.922;2023-11-21T14:05:33;3.60;;;3.10;;
2404;SDS011;1213;43.206;27.922;2023-11-21T14:07:59;6.97;;;3.57;;
2404;SDS011;1213;43.206;27.922;2023-11-21T14:10:29;8.57;;;4.27;;
2404;SDS011;1213;43.206;27.922;2023-11-21T14:13:05;7.77;;;4.10;;
2404;SDS011;1213;43.206;27.922;2023-11-21T14:15:31;6.90;;;3.47;;
2404;SDS011;1213;43.206;27.922;2023-11-21T14:17:58;3.80;;;3.47;;
2404;SDS011;1213;43.206;27.922;2023-11-21T14:20:25;5.80;;;3.90;;
2404;SDS011;1213;43.206;27.922;2023-11-21T14:22:50;3.47;;;3.17;;
2404;SDS011;1213;43.206;27.922;2023-11-21T14:25:16;3.00;;;2.60;;
2404;SDS011;1213;43.206;27.922;2023-11-21T14:27:43;5.57;;;3.60;;
2404;SDS011;1213;43.206;27.922;2023-11-21T14:30:09;5.07;;;3.10;;
2404;SDS011;1213;43.206;27.922;2023-11-21T14:32:37;8.93;;;4.67;;
2404;SDS011;1213;43.206;27.922;2023-11-21T14:35:03;11.87;;;4.17;;
2404;SDS011;1213;43.206;27.922;2023-11-21T14:37:29;3.03;;;2.73;;
2404;SDS011;1213;43.206;27.922;2023-11-21T14:39:54;8.30;;;4.03;;
2404;SDS011;1213;43.206;27.922;2023-11-21T14:42:29;4.57;;;2.53;;
2404;SDS011;1213;43.206;27.922;2023-11-21T14:44:55;6.37;;;3.43;;
2404;SDS011;1213;43.206;27.922;2023-11-21T14:47:28;6.07;;;3.40;;
2404;SDS011;1213;43.206;27.922;2023-11-21T14:49:54;7.27;;;4.40;;
2404;SDS011;1213;43.206;27.922;2023-11-21T14:52:22;9.07;;;6.70;;